This is the latest recevied weather packets stored in our database for station/object WB5NHL-13. If no packets are shown the sender has not sent any weather packets the latest 10 day(s).
| Time | Temp. | Humidity | Pressure | Rain* | Wind** | Luminosity | Snow |
|---|---|---|---|---|---|---|---|
| 1778194523 | 25° C | 85% | 1008.7 hPa | 0 mm | - | - | - |
| 1778192116 | 25° C | 86% | 1008.5 hPa | 0 mm | - | - | - |
| 1778191519 | 25° C | 86% | 1008.4 hPa | 0 mm | - | - | - |
| 1778189729 | 26.11° C | 85% | 1008.5 hPa | 0 mm | - | - | - |
| 1778188515 | 25° C | 88% | 1008.6 hPa | 0 mm | - | - | - |
| 1778186127 | 24.44° C | 88% | 1009 hPa | 0 mm | - | - | - |
| 1778185530 | 25° C | 87% | 1009 hPa | 0 mm | - | - | - |
| 1778183741 | 25° C | 87% | 1009.1 hPa | 0 mm | - | - | - |
| 1778180718 | 24.44° C | 94% | 1009 hPa | 0 mm | - | - | - |
| 1778180120 | 24.44° C | 94% | 1008.8 hPa | 0 mm | - | - | - |
| 1778178369 | 22.78° C | 99% | 1009.1 hPa | 0 mm | - | - | - |
| 1778172919 | 20.56° C | 99% | 1009.8 hPa | 2.54 mm | - | - | - |
| 1778171725 | 20.56° C | 99% | 1010.1 hPa | 3.3 mm | - | - | - |
| 1778162751 | 20° C | 99% | 1010.3 hPa | 2.54 mm | - | - | - |
| 1778160327 | 20° C | 99% | 1009.7 hPa | 0 mm | - | - | - |
| 1778154317 | 18.89° C | 99% | 1008.8 hPa | 1.27 mm | - | - | - |
| 1778147731 | 19.44° C | 99% | 1010.6 hPa | 2.29 mm | - | - | - |
| 1778146539 | 19.44° C | 99% | 1010.8 hPa | 3.56 mm | - | - | - |
| 1778143515 | 20° C | 99% | 1011.8 hPa | 3.05 mm | - | - | - |
| 1778141717 | 20° C | 99% | 1012 hPa | 2.03 mm | - | - | - |
| 1778138720 | 21.11° C | 94% | 1011.5 hPa | 0.25 mm | - | - | - |
| 1778124932 | 25° C | 64% | 1013.1 hPa | 0 mm | - | - | - |
| 1778119523 | 25.56° C | 64% | 1011.8 hPa | 0 mm | - | - | - |
| 1778118316 | 25.56° C | 65% | 1011.1 hPa | 0 mm | - | - | - |
| 1778117751 | 26.11° C | 65% | 1011.1 hPa | 0 mm | - | - | - |
* Rain latest hour (hover to see other rain measurements)
** Current wind speed in m/s (hover to see current wind gust speed)